sensor_id;sensor_type;location;lat;lon;timestamp;P1;durP1;ratioP1;P2;durP2;ratioP2
65641;SDS011;52340;-6.720;108.544;2023-10-31T00:00:36;35.05;;;23.98;;
65641;SDS011;52340;-6.720;108.544;2023-10-31T00:01:38;34.33;;;23.75;;
65641;SDS011;52340;-6.720;108.544;2023-10-31T00:02:40;36.72;;;23.52;;
65641;SDS011;52340;-6.720;108.544;2023-10-31T00:03:41;30.83;;;23.48;;
65641;SDS011;52340;-6.720;108.544;2023-10-31T00:04:43;32.33;;;23.95;;
65641;SDS011;52340;-6.720;108.544;2023-10-31T00:05:44;32.58;;;22.63;;
65641;SDS011;52340;-6.720;108.544;2023-10-31T00:06:46;37.95;;;24.05;;
65641;SDS011;52340;-6.720;108.544;2023-10-31T00:07:48;33.60;;;23.20;;
65641;SDS011;52340;-6.720;108.544;2023-10-31T00:08:50;33.25;;;22.80;;
65641;SDS011;52340;-6.720;108.544;2023-10-31T00:09:51;43.60;;;24.00;;
65641;SDS011;52340;-6.720;108.544;2023-10-31T00:10:53;33.22;;;23.40;;
65641;SDS011;52340;-6.720;108.544;2023-10-31T00:11:55;32.40;;;22.75;;
65641;SDS011;52340;-6.720;108.544;2023-10-31T00:12:58;31.23;;;23.15;;
65641;SDS011;52340;-6.720;108.544;2023-10-31T00:14:00;35.25;;;23.33;;
65641;SDS011;52340;-6.720;108.544;2023-10-31T00:15:01;31.70;;;23.40;;
65641;SDS011;52340;-6.720;108.544;2023-10-31T00:16:03;35.13;;;23.90;;
65641;SDS011;52340;-6.720;108.544;2023-10-31T00:17:05;33.30;;;23.25;;
65641;SDS011;52340;-6.720;108.544;2023-10-31T00:18:09;37.20;;;24.15;;
65641;SDS011;52340;-6.720;108.544;2023-10-31T00:19:11;32.22;;;22.98;;
65641;SDS011;52340;-6.720;108.544;2023-10-31T00:20:13;38.40;;;23.83;;
65641;SDS011;52340;-6.720;108.544;2023-10-31T00:21:15;34.10;;;23.83;;
65641;SDS011;52340;-6.720;108.544;2023-10-31T00:22:17;32.85;;;24.05;;
65641;SDS011;52340;-6.720;108.544;2023-10-31T00:23:18;34.10;;;23.17;;
65641;SDS011;52340;-6.720;108.544;2023-10-31T00:24:20;41.47;;;24.42;;
65641;SDS011;52340;-6.720;108.544;2023-10-31T00:25:22;34.30;;;23.70;;
65641;SDS011;52340;-6.720;108.544;2023-10-31T00:26:24;34.67;;;24.23;;
65641;SDS011;52340;-6.720;108.544;2023-10-31T00:27:25;30.98;;;22.30;;
65641;SDS011;52340;-6.720;108.544;2023-10-31T00:28:30;34.00;;;23.50;;
65641;SDS011;52340;-6.720;108.544;2023-10-31T00:29:31;32.90;;;24.05;;
65641;SDS011;52340;-6.720;108.544;2023-10-31T00:30:33;32.65;;;24.02;;
65641;SDS011;52340;-6.720;108.544;2023-10-31T00:31:37;33.10;;;23.88;;
65641;SDS011;52340;-6.720;108.544;2023-10-31T00:32:39;30.88;;;23.15;;
65641;SDS011;52340;-6.720;108.544;2023-10-31T00:33:41;35.90;;;24.63;;
65641;SDS011;52340;-6.720;108.544;2023-10-31T00:34:45;30.38;;;22.98;;
65641;SDS011;52340;-6.720;108.544;2023-10-31T00:35:47;33.60;;;23.83;;
65641;SDS011;52340;-6.720;108.544;2023-10-31T00:36:49;33.47;;;24.38;;
65641;SDS011;52340;-6.720;108.544;2023-10-31T00:37:50;29.35;;;23.20;;
65641;SDS011;52340;-6.720;108.544;2023-10-31T00:38:52;32.47;;;23.45;;
65641;SDS011;52340;-6.720;108.544;2023-10-31T00:39:54;33.83;;;23.58;;
65641;SDS011;52340;-6.720;108.544;2023-10-31T00:40:55;34.97;;;24.42;;
65641;SDS011;52340;-6.720;108.544;2023-10-31T00:41:57;35.03;;;24.08;;
65641;SDS011;52340;-6.720;108.544;2023-10-31T00:42:59;36.90;;;23.92;;
65641;SDS011;52340;-6.720;108.544;2023-10-31T00:44:02;33.05;;;23.42;;
65641;SDS011;52340;-6.720;108.544;2023-10-31T00:45:04;48.25;;;24.38;;
65641;SDS011;52340;-6.720;108.544;2023-10-31T00:46:06;61.33;;;27.67;;
65641;SDS011;52340;-6.720;108.544;2023-10-31T00:47:08;45.50;;;26.33;;
65641;SDS011;52340;-6.720;108.544;2023-10-31T00:48:09;45.00;;;24.52;;
65641;SDS011;52340;-6.720;108.544;2023-10-31T00:49:11;40.00;;;24.23;;
65641;SDS011;52340;-6.720;108.544;2023-10-31T00:50:13;36.45;;;24.15;;
65641;SDS011;52340;-6.720;108.544;2023-10-31T00:51:17;34.05;;;23.58;;
65641;SDS011;52340;-6.720;108.544;2023-10-31T00:52:18;34.78;;;23.52;;
65641;SDS011;52340;-6.720;108.544;2023-10-31T00:53:20;34.67;;;24.35;;
65641;SDS011;52340;-6.720;108.544;2023-10-31T00:54:22;38.47;;;23.52;;
65641;SDS011;52340;-6.720;108.544;2023-10-31T00:55:24;36.70;;;24.00;;
65641;SDS011;52340;-6.720;108.544;2023-10-31T00:56:25;37.03;;;23.85;;
65641;SDS011;52340;-6.720;108.544;2023-10-31T00:57:27;35.60;;;23.05;;
65641;SDS011;52340;-6.720;108.544;2023-10-31T00:58:31;30.98;;;21.90;;
65641;SDS011;52340;-6.720;108.544;2023-10-31T00:59:35;32.58;;;21.48;;
65641;SDS011;52340;-6.720;108.544;2023-10-31T01:00:37;31.42;;;22.55;;
65641;SDS011;52340;-6.720;108.544;2023-10-31T01:01:39;29.77;;;22.15;;
65641;SDS011;52340;-6.720;108.544;2023-10-31T01:02:40;31.70;;;22.48;;
65641;SDS011;52340;-6.720;108.544;2023-10-31T01:03:42;29.20;;;21.77;;
65641;SDS011;52340;-6.720;108.544;2023-10-31T01:04:44;33.00;;;22.75;;
65641;SDS011;52340;-6.720;108.544;2023-10-31T01:05:45;32.25;;;21.75;;
65641;SDS011;52340;-6.720;108.544;2023-10-31T01:06:47;32.40;;;22.33;;
65641;SDS011;52340;-6.720;108.544;2023-10-31T01:07:51;27.30;;;20.60;;
65641;SDS011;52340;-6.720;108.544;2023-10-31T01:08:53;29.35;;;20.98;;
65641;SDS011;52340;-6.720;108.544;2023-10-31T01:09:55;29.70;;;20.90;;
65641;SDS011;52340;-6.720;108.544;2023-10-31T01:10:57;29.40;;;21.58;;
65641;SDS011;52340;-6.720;108.544;2023-10-31T01:11:58;28.45;;;21.27;;
65641;SDS011;52340;-6.720;108.544;2023-10-31T01:13:00;31.75;;;21.90;;
65641;SDS011;52340;-6.720;108.544;2023-10-31T01:14:02;27.77;;;20.50;;
65641;SDS011;52340;-6.720;108.544;2023-10-31T01:15:06;28.60;;;20.55;;
65641;SDS011;52340;-6.720;108.544;2023-10-31T01:16:09;28.63;;;20.90;;
65641;SDS011;52340;-6.720;108.544;2023-10-31T01:17:10;28.35;;;20.67;;
65641;SDS011;52340;-6.720;108.544;2023-10-31T01:18:12;30.77;;;21.15;;
65641;SDS011;52340;-6.720;108.544;2023-10-31T01:19:13;28.05;;;20.48;;
65641;SDS011;52340;-6.720;108.544;2023-10-31T01:20:15;26.92;;;20.45;;
65641;SDS011;52340;-6.720;108.544;2023-10-31T01:21:20;28.77;;;20.98;;
65641;SDS011;52340;-6.720;108.544;2023-10-31T01:22:21;29.98;;;21.02;;
65641;SDS011;52340;-6.720;108.544;2023-10-31T01:23:23;27.02;;;20.52;;
65641;SDS011;52340;-6.720;108.544;2023-10-31T01:24:25;31.45;;;21.17;;
65641;SDS011;52340;-6.720;108.544;2023-10-31T01:25:26;27.25;;;20.58;;
65641;SDS011;52340;-6.720;108.544;2023-10-31T01:26:28;29.40;;;21.58;;
65641;SDS011;52340;-6.720;108.544;2023-10-31T01:27:30;30.52;;;21.05;;
65641;SDS011;52340;-6.720;108.544;2023-10-31T01:28:31;27.55;;;20.70;;
65641;SDS011;52340;-6.720;108.544;2023-10-31T01:29:33;28.25;;;20.58;;
65641;SDS011;52340;-6.720;108.544;2023-10-31T01:30:37;29.27;;;20.88;;
65641;SDS011;52340;-6.720;108.544;2023-10-31T01:31:42;27.98;;;20.45;;
65641;SDS011;52340;-6.720;108.544;2023-10-31T01:32:44;28.08;;;20.88;;
65641;SDS011;52340;-6.720;108.544;2023-10-31T01:33:45;27.17;;;20.13;;
65641;SDS011;52340;-6.720;108.544;2023-10-31T01:34:49;27.27;;;20.17;;
65641;SDS011;52340;-6.720;108.544;2023-10-31T01:35:51;26.88;;;20.10;;
65641;SDS011;52340;-6.720;108.544;2023-10-31T01:36:55;30.75;;;20.83;;
65641;SDS011;52340;-6.720;108.544;2023-10-31T01:37:56;30.80;;;20.75;;
65641;SDS011;52340;-6.720;108.544;2023-10-31T01:38:58;25.02;;;18.15;;
65641;SDS011;52340;-6.720;108.544;2023-10-31T01:39:59;25.75;;;19.23;;
65641;SDS011;52340;-6.720;108.544;2023-10-31T01:41:01;28.25;;;19.35;;
65641;SDS011;52340;-6.720;108.544;2023-10-31T01:42:03;24.85;;;19.20;;
65641;SDS011;52340;-6.720;108.544;2023-10-31T01:43:05;24.42;;;18.15;;
65641;SDS011;52340;-6.720;108.544;2023-10-31T01:44:07;24.77;;;18.58;;
65641;SDS011;52340;-6.720;108.544;2023-10-31T01:45:09;25.08;;;18.17;;
65641;SDS011;52340;-6.720;108.544;2023-10-31T01:46:13;26.52;;;18.75;;
65641;SDS011;52340;-6.720;108.544;2023-10-31T01:47:14;26.08;;;18.90;;
65641;SDS011;52340;-6.720;108.544;2023-10-31T01:48:16;22.98;;;18.48;;
65641;SDS011;52340;-6.720;108.544;2023-10-31T01:49:21;25.77;;;18.20;;
65641;SDS011;52340;-6.720;108.544;2023-10-31T01:50:22;25.92;;;17.70;;
65641;SDS011;52340;-6.720;108.544;2023-10-31T01:51:24;24.73;;;18.42;;
65641;SDS011;52340;-6.720;108.544;2023-10-31T01:52:27;24.83;;;17.75;;
65641;SDS011;52340;-6.720;108.544;2023-10-31T01:53:29;25.20;;;18.27;;
65641;SDS011;52340;-6.720;108.544;2023-10-31T01:54:32;24.65;;;17.50;;
65641;SDS011;52340;-6.720;108.544;2023-10-31T01:55:34;24.50;;;17.30;;
65641;SDS011;52340;-6.720;108.544;2023-10-31T01:56:35;23.88;;;17.25;;
65641;SDS011;52340;-6.720;108.544;2023-10-31T01:57:37;27.02;;;17.35;;
65641;SDS011;52340;-6.720;108.544;2023-10-31T01:58:42;25.88;;;17.40;;
65641;SDS011;52340;-6.720;108.544;2023-10-31T01:59:43;23.42;;;17.42;;
65641;SDS011;52340;-6.720;108.544;2023-10-31T02:00:45;24.70;;;17.15;;
65641;SDS011;52340;-6.720;108.544;2023-10-31T02:01:49;23.98;;;17.23;;
65641;SDS011;52340;-6.720;108.544;2023-10-31T02:02:52;25.95;;;18.08;;
65641;SDS011;52340;-6.720;108.544;2023-10-31T02:03:56;24.65;;;17.35;;
65641;SDS011;52340;-6.720;108.544;2023-10-31T02:04:58;24.90;;;16.98;;
65641;SDS011;52340;-6.720;108.544;2023-10-31T02:06:00;26.13;;;17.65;;
65641;SDS011;52340;-6.720;108.544;2023-10-31T02:07:02;23.42;;;17.60;;
65641;SDS011;52340;-6.720;108.544;2023-10-31T02:08:04;24.13;;;17.63;;
65641;SDS011;52340;-6.720;108.544;2023-10-31T02:09:06;31.02;;;17.42;;
65641;SDS011;52340;-6.720;108.544;2023-10-31T02:10:08;23.88;;;17.35;;
65641;SDS011;52340;-6.720;108.544;2023-10-31T02:11:10;23.30;;;17.00;;
65641;SDS011;52340;-6.720;108.544;2023-10-31T02:12:12;23.10;;;16.83;;
65641;SDS011;52340;-6.720;108.544;2023-10-31T02:13:32;23.08;;;17.27;;
65641;SDS011;52340;-6.720;108.544;2023-10-31T02:14:33;24.83;;;17.70;;
65641;SDS011;52340;-6.720;108.544;2023-10-31T02:15:35;23.65;;;17.65;;
65641;SDS011;52340;-6.720;108.544;2023-10-31T02:16:37;24.67;;;16.83;;
65641;SDS011;52340;-6.720;108.544;2023-10-31T02:17:40;23.15;;;17.00;;
65641;SDS011;52340;-6.720;108.544;2023-10-31T02:18:42;24.50;;;17.45;;
65641;SDS011;52340;-6.720;108.544;2023-10-31T02:19:44;22.45;;;16.60;;
65641;SDS011;52340;-6.720;108.544;2023-10-31T02:20:45;24.77;;;16.95;;
65641;SDS011;52340;-6.720;108.544;2023-10-31T02:21:52;23.40;;;16.65;;
65641;SDS011;52340;-6.720;108.544;2023-10-31T02:22:53;22.85;;;17.30;;
65641;SDS011;52340;-6.720;108.544;2023-10-31T02:23:58;22.42;;;16.48;;
65641;SDS011;52340;-6.720;108.544;2023-10-31T02:25:00;23.58;;;17.23;;
65641;SDS011;52340;-6.720;108.544;2023-10-31T02:26:02;27.48;;;17.83;;
65641;SDS011;52340;-6.720;108.544;2023-10-31T02:27:03;26.05;;;17.70;;
65641;SDS011;52340;-6.720;108.544;2023-10-31T02:28:05;23.85;;;17.55;;
65641;SDS011;52340;-6.720;108.544;2023-10-31T02:29:07;27.40;;;17.67;;
65641;SDS011;52340;-6.720;108.544;2023-10-31T02:30:14;25.98;;;17.90;;
65641;SDS011;52340;-6.720;108.544;2023-10-31T02:31:15;27.63;;;17.20;;
65641;SDS011;52340;-6.720;108.544;2023-10-31T02:32:17;23.08;;;16.27;;
65641;SDS011;52340;-6.720;108.544;2023-10-31T02:33:19;24.30;;;16.80;;
65641;SDS011;52340;-6.720;108.544;2023-10-31T02:34:20;25.67;;;17.27;;
65641;SDS011;52340;-6.720;108.544;2023-10-31T02:35:22;24.20;;;17.45;;
65641;SDS011;52340;-6.720;108.544;2023-10-31T02:36:26;24.50;;;17.00;;
65641;SDS011;52340;-6.720;108.544;2023-10-31T02:37:30;25.60;;;17.25;;
65641;SDS011;52340;-6.720;108.544;2023-10-31T02:38:31;26.90;;;17.83;;
65641;SDS011;52340;-6.720;108.544;2023-10-31T02:39:33;23.25;;;16.92;;
65641;SDS011;52340;-6.720;108.544;2023-10-31T02:40:35;23.38;;;16.92;;
65641;SDS011;52340;-6.720;108.544;2023-10-31T02:41:36;23.55;;;16.27;;
65641;SDS011;52340;-6.720;108.544;2023-10-31T02:42:38;26.88;;;18.05;;
65641;SDS011;52340;-6.720;108.544;2023-10-31T02:43:40;21.35;;;16.60;;
65641;SDS011;52340;-6.720;108.544;2023-10-31T02:44:41;26.58;;;17.45;;
65641;SDS011;52340;-6.720;108.544;2023-10-31T02:45:43;28.77;;;17.73;;
65641;SDS011;52340;-6.720;108.544;2023-10-31T02:46:45;23.98;;;17.00;;
65641;SDS011;52340;-6.720;108.544;2023-10-31T02:47:46;23.45;;;17.38;;
65641;SDS011;52340;-6.720;108.544;2023-10-31T02:48:48;28.52;;;17.55;;
65641;SDS011;52340;-6.720;108.544;2023-10-31T02:49:50;25.88;;;17.27;;
65641;SDS011;52340;-6.720;108.544;2023-10-31T02:50:51;25.13;;;17.70;;
65641;SDS011;52340;-6.720;108.544;2023-10-31T02:51:53;25.10;;;17.33;;
65641;SDS011;52340;-6.720;108.544;2023-10-31T02:52:56;28.92;;;17.17;;
65641;SDS011;52340;-6.720;108.544;2023-10-31T02:54:01;24.23;;;18.10;;
65641;SDS011;52340;-6.720;108.544;2023-10-31T02:55:06;22.77;;;17.42;;
65641;SDS011;52340;-6.720;108.544;2023-10-31T02:56:08;24.40;;;17.10;;
65641;SDS011;52340;-6.720;108.544;2023-10-31T02:57:12;22.92;;;17.17;;
65641;SDS011;52340;-6.720;108.544;2023-10-31T02:58:15;23.23;;;16.08;;
65641;SDS011;52340;-6.720;108.544;2023-10-31T02:59:16;22.05;;;16.42;;
65641;SDS011;52340;-6.720;108.544;2023-10-31T03:00:18;23.83;;;17.30;;
65641;SDS011;52340;-6.720;108.544;2023-10-31T03:01:20;21.35;;;16.73;;
65641;SDS011;52340;-6.720;108.544;2023-10-31T03:02:21;22.77;;;17.30;;
65641;SDS011;52340;-6.720;108.544;2023-10-31T03:03:23;24.60;;;17.33;;
65641;SDS011;52340;-6.720;108.544;2023-10-31T03:04:25;22.30;;;17.17;;
65641;SDS011;52340;-6.720;108.544;2023-10-31T03:05:29;25.95;;;17.02;;
65641;SDS011;52340;-6.720;108.544;2023-10-31T03:06:30;21.25;;;16.30;;
65641;SDS011;52340;-6.720;108.544;2023-10-31T03:07:32;23.25;;;17.08;;
65641;SDS011;52340;-6.720;108.544;2023-10-31T03:08:35;24.52;;;16.75;;
65641;SDS011;52340;-6.720;108.544;2023-10-31T03:09:37;22.52;;;17.08;;
65641;SDS011;52340;-6.720;108.544;2023-10-31T03:10:40;23.00;;;16.60;;
65641;SDS011;52340;-6.720;108.544;2023-10-31T03:11:42;24.90;;;16.63;;
65641;SDS011;52340;-6.720;108.544;2023-10-31T03:12:44;25.98;;;16.45;;
65641;SDS011;52340;-6.720;108.544;2023-10-31T03:13:46;20.92;;;16.05;;
65641;SDS011;52340;-6.720;108.544;2023-10-31T03:14:47;25.10;;;17.75;;
65641;SDS011;52340;-6.720;108.544;2023-10-31T03:15:49;26.63;;;16.67;;
65641;SDS011;52340;-6.720;108.544;2023-10-31T03:16:50;26.33;;;17.77;;
65641;SDS011;52340;-6.720;108.544;2023-10-31T03:17:52;22.73;;;16.95;;
65641;SDS011;52340;-6.720;108.544;2023-10-31T03:18:54;22.17;;;17.20;;
65641;SDS011;52340;-6.720;108.544;2023-10-31T03:19:55;24.45;;;16.95;;
65641;SDS011;52340;-6.720;108.544;2023-10-31T03:20:57;24.85;;;16.83;;
65641;SDS011;52340;-6.720;108.544;2023-10-31T03:21:59;22.13;;;17.05;;
65641;SDS011;52340;-6.720;108.544;2023-10-31T03:23:00;22.33;;;16.17;;
65641;SDS011;52340;-6.720;108.544;2023-10-31T03:24:04;26.50;;;17.13;;
65641;SDS011;52340;-6.720;108.544;2023-10-31T03:25:06;22.40;;;15.85;;
65641;SDS011;52340;-6.720;108.544;2023-10-31T03:26:08;22.88;;;16.60;;
65641;SDS011;52340;-6.720;108.544;2023-10-31T03:28:48;23.38;;;16.67;;
65641;SDS011;52340;-6.720;108.544;2023-10-31T03:29:49;25.73;;;17.23;;
65641;SDS011;52340;-6.720;108.544;2023-10-31T03:30:51;25.40;;;17.30;;
65641;SDS011;52340;-6.720;108.544;2023-10-31T03:31:53;23.73;;;17.02;;
65641;SDS011;52340;-6.720;108.544;2023-10-31T03:32:54;25.02;;;16.60;;
65641;SDS011;52340;-6.720;108.544;2023-10-31T03:33:56;24.35;;;17.38;;
65641;SDS011;52340;-6.720;108.544;2023-10-31T03:34:58;24.85;;;17.55;;
65641;SDS011;52340;-6.720;108.544;2023-10-31T03:36:01;25.80;;;16.75;;
65641;SDS011;52340;-6.720;108.544;2023-10-31T03:37:03;29.70;;;17.05;;
65641;SDS011;52340;-6.720;108.544;2023-10-31T03:38:05;24.75;;;16.88;;
65641;SDS011;52340;-6.720;108.544;2023-10-31T03:39:11;23.27;;;17.15;;
65641;SDS011;52340;-6.720;108.544;2023-10-31T03:40:13;25.10;;;16.77;;
65641;SDS011;52340;-6.720;108.544;2023-10-31T03:41:15;24.65;;;17.42;;
65641;SDS011;52340;-6.720;108.544;2023-10-31T03:42:16;24.65;;;17.30;;
65641;SDS011;52340;-6.720;108.544;2023-10-31T03:43:18;28.02;;;17.38;;
65641;SDS011;52340;-6.720;108.544;2023-10-31T03:44:20;22.33;;;17.48;;
65641;SDS011;52340;-6.720;108.544;2023-10-31T03:45:21;24.98;;;18.40;;
65641;SDS011;52340;-6.720;108.544;2023-10-31T03:46:23;30.40;;;18.02;;
65641;SDS011;52340;-6.720;108.544;2023-10-31T03:47:25;25.52;;;18.80;;
65641;SDS011;52340;-6.720;108.544;2023-10-31T03:48:26;28.50;;;18.60;;
65641;SDS011;52340;-6.720;108.544;2023-10-31T03:49:28;40.63;;;23.70;;
65641;SDS011;52340;-6.720;108.544;2023-10-31T03:50:30;50.22;;;27.77;;
65641;SDS011;52340;-6.720;108.544;2023-10-31T03:51:32;42.45;;;24.70;;
65641;SDS011;52340;-6.720;108.544;2023-10-31T03:52:34;36.95;;;21.67;;
65641;SDS011;52340;-6.720;108.544;2023-10-31T03:53:35;37.88;;;22.30;;
65641;SDS011;52340;-6.720;108.544;2023-10-31T03:54:41;47.33;;;28.55;;
65641;SDS011;52340;-6.720;108.544;2023-10-31T03:55:43;42.63;;;25.88;;
65641;SDS011;52340;-6.720;108.544;2023-10-31T03:56:47;39.95;;;23.73;;
65641;SDS011;52340;-6.720;108.544;2023-10-31T03:57:49;33.85;;;20.90;;
65641;SDS011;52340;-6.720;108.544;2023-10-31T03:58:50;35.38;;;23.35;;
65641;SDS011;52340;-6.720;108.544;2023-10-31T03:59:52;54.30;;;30.30;;
65641;SDS011;52340;-6.720;108.544;2023-10-31T04:00:53;53.35;;;29.98;;
65641;SDS011;52340;-6.720;108.544;2023-10-31T04:01:55;50.88;;;29.30;;
65641;SDS011;52340;-6.720;108.544;2023-10-31T04:02:57;43.10;;;25.27;;
65641;SDS011;52340;-6.720;108.544;2023-10-31T04:03:58;44.58;;;25.08;;
65641;SDS011;52340;-6.720;108.544;2023-10-31T04:05:02;39.38;;;23.13;;
65641;SDS011;52340;-6.720;108.544;2023-10-31T04:06:04;36.47;;;24.13;;
65641;SDS011;52340;-6.720;108.544;2023-10-31T04:07:09;46.58;;;29.05;;
65641;SDS011;52340;-6.720;108.544;2023-10-31T04:08:10;61.30;;;35.55;;
65641;SDS011;52340;-6.720;108.544;2023-10-31T04:09:12;58.80;;;33.47;;
65641;SDS011;52340;-6.720;108.544;2023-10-31T04:10:15;52.38;;;28.55;;
65641;SDS011;52340;-6.720;108.544;2023-10-31T04:11:18;47.10;;;29.48;;
65641;SDS011;52340;-6.720;108.544;2023-10-31T04:12:20;46.45;;;27.42;;
65641;SDS011;52340;-6.720;108.544;2023-10-31T04:13:21;33.92;;;23.00;;
65641;SDS011;52340;-6.720;108.544;2023-10-31T04:14:26;33.05;;;21.23;;
65641;SDS011;52340;-6.720;108.544;2023-10-31T04:15:30;32.13;;;20.65;;
65641;SDS011;52340;-6.720;108.544;2023-10-31T04:16:32;33.95;;;21.05;;
65641;SDS011;52340;-6.720;108.544;2023-10-31T04:17:42;55.40;;;32.65;;
65641;SDS011;52340;-6.720;108.544;2023-10-31T04:18:44;59.67;;;34.28;;
65641;SDS011;52340;-6.720;108.544;2023-10-31T04:19:45;45.10;;;26.45;;
65641;SDS011;52340;-6.720;108.544;2023-10-31T04:20:47;32.38;;;22.42;;
65641;SDS011;52340;-6.720;108.544;2023-10-31T04:21:49;38.00;;;22.42;;
65641;SDS011;52340;-6.720;108.544;2023-10-31T04:22:50;27.75;;;19.05;;
65641;SDS011;52340;-6.720;108.544;2023-10-31T04:23:52;29.83;;;19.25;;
65641;SDS011;52340;-6.720;108.544;2023-10-31T04:24:55;25.55;;;18.02;;
65641;SDS011;52340;-6.720;108.544;2023-10-31T04:25:58;27.30;;;17.20;;
65641;SDS011;52340;-6.720;108.544;2023-10-31T04:27:01;24.00;;;16.88;;
65641;SDS011;52340;-6.720;108.544;2023-10-31T04:28:03;32.47;;;20.83;;
65641;SDS011;52340;-6.720;108.544;2023-10-31T04:29:05;26.00;;;17.15;;
65641;SDS011;52340;-6.720;108.544;2023-10-31T04:30:07;27.52;;;17.75;;
65641;SDS011;52340;-6.720;108.544;2023-10-31T04:31:09;32.03;;;20.83;;
65641;SDS011;52340;-6.720;108.544;2023-10-31T04:32:11;32.25;;;20.70;;
65641;SDS011;52340;-6.720;108.544;2023-10-31T04:33:12;31.33;;;18.77;;
65641;SDS011;52340;-6.720;108.544;2023-10-31T04:34:14;31.35;;;19.48;;
65641;SDS011;52340;-6.720;108.544;2023-10-31T04:35:16;28.98;;;19.00;;
65641;SDS011;52340;-6.720;108.544;2023-10-31T04:36:20;38.67;;;22.52;;
65641;SDS011;52340;-6.720;108.544;2023-10-31T04:37:21;28.30;;;18.58;;
65641;SDS011;52340;-6.720;108.544;2023-10-31T04:38:23;32.47;;;19.58;;
65641;SDS011;52340;-6.720;108.544;2023-10-31T04:39:25;35.47;;;21.48;;
65641;SDS011;52340;-6.720;108.544;2023-10-31T04:40:26;41.92;;;25.40;;
65641;SDS011;52340;-6.720;108.544;2023-10-31T04:41:30;40.17;;;23.70;;
65641;SDS011;52340;-6.720;108.544;2023-10-31T04:42:32;36.58;;;22.08;;
65641;SDS011;52340;-6.720;108.544;2023-10-31T04:43:36;37.38;;;19.90;;
65641;SDS011;52340;-6.720;108.544;2023-10-31T04:44:38;31.20;;;17.92;;
65641;SDS011;52340;-6.720;108.544;2023-10-31T04:45:39;47.58;;;19.38;;
65641;SDS011;52340;-6.720;108.544;2023-10-31T04:46:41;60.30;;;18.88;;
65641;SDS011;52340;-6.720;108.544;2023-10-31T04:47:42;43.65;;;17.60;;
65641;SDS011;52340;-6.720;108.544;2023-10-31T04:48:44;49.35;;;19.50;;
65641;SDS011;52340;-6.720;108.544;2023-10-31T04:49:46;39.67;;;18.52;;
65641;SDS011;52340;-6.720;108.544;2023-10-31T04:50:47;32.45;;;17.75;;
65641;SDS011;52340;-6.720;108.544;2023-10-31T04:51:49;30.90;;;16.83;;
65641;SDS011;52340;-6.720;108.544;2023-10-31T04:52:51;26.08;;;15.52;;
65641;SDS011;52340;-6.720;108.544;2023-10-31T04:53:52;24.80;;;15.07;;
65641;SDS011;52340;-6.720;108.544;2023-10-31T04:54:54;22.70;;;14.98;;
65641;SDS011;52340;-6.720;108.544;2023-10-31T04:55:56;22.65;;;14.80;;
65641;SDS011;52340;-6.720;108.544;2023-10-31T04:57:01;24.10;;;15.27;;
65641;SDS011;52340;-6.720;108.544;2023-10-31T04:58:02;24.17;;;14.38;;
65641;SDS011;52340;-6.720;108.544;2023-10-31T04:59:04;20.60;;;14.50;;
65641;SDS011;52340;-6.720;108.544;2023-10-31T05:00:09;20.27;;;14.65;;
65641;SDS011;52340;-6.720;108.544;2023-10-31T05:01:11;21.88;;;14.75;;
65641;SDS011;52340;-6.720;108.544;2023-10-31T05:02:14;23.17;;;15.38;;
65641;SDS011;52340;-6.720;108.544;2023-10-31T05:03:15;23.45;;;14.63;;
65641;SDS011;52340;-6.720;108.544;2023-10-31T05:04:17;20.33;;;14.35;;
65641;SDS011;52340;-6.720;108.544;2023-10-31T05:05:19;21.30;;;14.15;;
65641;SDS011;52340;-6.720;108.544;2023-10-31T05:06:20;21.33;;;14.18;;
65641;SDS011;52340;-6.720;108.544;2023-10-31T05:07:22;20.92;;;13.98;;
65641;SDS011;52340;-6.720;108.544;2023-10-31T05:08:24;19.98;;;14.25;;
65641;SDS011;52340;-6.720;108.544;2023-10-31T05:09:26;19.73;;;14.48;;
65641;SDS011;52340;-6.720;108.544;2023-10-31T05:10:28;21.13;;;13.63;;
65641;SDS011;52340;-6.720;108.544;2023-10-31T05:11:29;23.77;;;15.05;;
65641;SDS011;52340;-6.720;108.544;2023-10-31T05:12:33;22.55;;;14.48;;
65641;SDS011;52340;-6.720;108.544;2023-10-31T05:13:34;25.38;;;15.77;;
65641;SDS011;52340;-6.720;108.544;2023-10-31T05:14:36;25.08;;;15.45;;
65641;SDS011;52340;-6.720;108.544;2023-10-31T05:15:38;20.73;;;14.25;;
65641;SDS011;52340;-6.720;108.544;2023-10-31T05:16:40;33.92;;;20.38;;
65641;SDS011;52340;-6.720;108.544;2023-10-31T05:17:42;27.27;;;16.75;;
65641;SDS011;52340;-6.720;108.544;2023-10-31T05:18:43;30.40;;;17.50;;
65641;SDS011;52340;-6.720;108.544;2023-10-31T05:19:45;32.83;;;17.90;;
65641;SDS011;52340;-6.720;108.544;2023-10-31T05:20:47;32.92;;;19.98;;
65641;SDS011;52340;-6.720;108.544;2023-10-31T05:21:48;36.38;;;20.88;;
65641;SDS011;52340;-6.720;108.544;2023-10-31T05:22:50;32.83;;;19.65;;
65641;SDS011;52340;-6.720;108.544;2023-10-31T05:23:52;34.30;;;19.20;;
65641;SDS011;52340;-6.720;108.544;2023-10-31T05:24:53;30.55;;;19.33;;
65641;SDS011;52340;-6.720;108.544;2023-10-31T05:25:55;28.08;;;15.88;;
65641;SDS011;52340;-6.720;108.544;2023-10-31T05:26:57;26.98;;;15.07;;
65641;SDS011;52340;-6.720;108.544;2023-10-31T05:28:03;20.88;;;14.23;;
65641;SDS011;52340;-6.720;108.544;2023-10-31T05:29:04;23.05;;;14.55;;
65641;SDS011;52340;-6.720;108.544;2023-10-31T05:30:06;22.73;;;14.43;;
65641;SDS011;52340;-6.720;108.544;2023-10-31T05:31:08;20.58;;;13.90;;
65641;SDS011;52340;-6.720;108.544;2023-10-31T05:32:10;23.42;;;13.48;;
65641;SDS011;52340;-6.720;108.544;2023-10-31T05:33:14;22.25;;;12.77;;
65641;SDS011;52340;-6.720;108.544;2023-10-31T05:34:16;18.80;;;13.75;;
65641;SDS011;52340;-6.720;108.544;2023-10-31T05:35:17;19.52;;;12.95;;
65641;SDS011;52340;-6.720;108.544;2023-10-31T05:36:19;21.33;;;13.75;;
65641;SDS011;52340;-6.720;108.544;2023-10-31T05:37:21;23.55;;;15.32;;
65641;SDS011;52340;-6.720;108.544;2023-10-31T05:38:23;22.00;;;14.80;;
65641;SDS011;52340;-6.720;108.544;2023-10-31T05:39:24;21.77;;;14.57;;
65641;SDS011;52340;-6.720;108.544;2023-10-31T05:40:26;24.15;;;15.98;;
65641;SDS011;52340;-6.720;108.544;2023-10-31T05:41:28;22.88;;;15.80;;
65641;SDS011;52340;-6.720;108.544;2023-10-31T05:42:29;26.00;;;15.57;;
65641;SDS011;52340;-6.720;108.544;2023-10-31T05:43:33;21.17;;;15.52;;
65641;SDS011;52340;-6.720;108.544;2023-10-31T05:44:34;20.52;;;14.50;;
65641;SDS011;52340;-6.720;108.544;2023-10-31T05:45:39;25.30;;;16.45;;
65641;SDS011;52340;-6.720;108.544;2023-10-31T05:46:41;22.40;;;15.35;;
65641;SDS011;52340;-6.720;108.544;2023-10-31T05:47:42;33.13;;;20.13;;
65641;SDS011;52340;-6.720;108.544;2023-10-31T05:48:44;27.40;;;17.13;;
65641;SDS011;52340;-6.720;108.544;2023-10-31T05:49:47;29.40;;;17.23;;
65641;SDS011;52340;-6.720;108.544;2023-10-31T05:50:49;26.60;;;17.85;;
65641;SDS011;52340;-6.720;108.544;2023-10-31T05:51:50;40.42;;;24.50;;
65641;SDS011;52340;-6.720;108.544;2023-10-31T05:52:52;40.95;;;24.30;;
65641;SDS011;52340;-6.720;108.544;2023-10-31T05:53:56;44.22;;;25.67;;
65641;SDS011;52340;-6.720;108.544;2023-10-31T05:54:58;37.45;;;23.42;;